Time;durP1;ratioP1;P1;durP2;ratioP2;P2;SDS_P1;SDS_P2;PMS_P1;PMS_P2;Temp;Humidity;BMP_temperature;BMP_pressure;BME280_temperature;BME280_humidity;BME280_pressure;Samples;Min_cycle;Max_cycle;Signal;HPM_P1;HPM_P2
2024/01/27 00:01:19;;;;;;;6.57;2.17;;;22.30;32.10;;;;;;4969260;28;20055;-61
2024/01/27 00:03:46;;;;;;;5.55;2.20;;;22.30;32.00;;;;;;4969203;28;20055;-59
2024/01/27 00:06:13;;;;;;;6.13;2.03;;;22.20;32.50;;;;;;4971785;28;20065;-60
2024/01/27 00:08:41;;;;;;;7.70;2.05;;;22.20;31.90;;;;;;4963684;28;20059;-60
2024/01/27 00:11:08;;;;;;;4.50;2.00;;;22.20;31.90;;;;;;4965701;28;20071;-59
2024/01/27 00:13:35;;;;;;;5.82;2.60;;;22.20;31.90;;;;;;4970078;28;20054;-61
2024/01/27 00:16:04;;;;;;;4.47;2.05;;;22.20;32.00;;;;;;4972617;28;20517;-59
2024/01/27 00:18:31;;;;;;;5.40;1.95;;;22.20;32.00;;;;;;4974124;28;20061;-54
2024/01/27 00:20:59;;;;;;;3.95;1.80;;;22.10;32.10;;;;;;4965986;28;20411;-61
2024/01/27 00:23:26;;;;;;;4.50;1.88;;;22.20;32.20;;;;;;4969931;28;20062;-60
2024/01/27 00:25:53;;;;;;;6.15;1.88;;;22.10;32.20;;;;;;4967388;28;20492;-61
2024/01/27 00:28:20;;;;;;;6.78;2.15;;;22.20;32.20;;;;;;4969055;28;20067;-58
2024/01/27 00:30:47;;;;;;;5.82;1.95;;;22.20;32.20;;;;;;4970839;28;20419;-57
2024/01/27 00:33:16;;;;;;;4.60;1.85;;;22.20;32.10;;;;;;4968100;28;20054;-56
2024/01/27 00:35:43;;;;;;;7.97;2.03;;;22.20;32.10;;;;;;4972573;28;20061;-58
2024/01/27 00:38:11;;;;;;;4.72;1.73;;;22.30;32.10;;;;;;4973720;28;20479;-57
2024/01/27 00:40:38;;;;;;;6.80;2.05;;;22.30;32.10;;;;;;4975336;28;20054;-59
2024/01/27 00:43:05;;;;;;;5.82;2.10;;;22.30;32.00;;;;;;4978385;28;20058;-58
2024/01/27 00:45:32;;;;;;;6.55;1.98;;;22.30;32.00;;;;;;4973661;28;20055;-58
2024/01/27 00:48:00;;;;;;;5.88;1.95;;;22.30;32.00;;;;;;4974431;28;20054;-59
2024/01/27 00:50:28;;;;;;;4.93;1.70;;;22.30;32.00;;;;;;4976408;28;20054;-59
2024/01/27 00:52:55;;;;;;;4.85;1.90;;;22.30;31.90;;;;;;4971884;28;20047;-59
2024/01/27 00:55:23;;;;;;;5.63;2.03;;;22.30;31.90;;;;;;4971814;28;20065;-59
2024/01/27 00:57:50;;;;;;;5.88;2.08;;;22.30;31.90;;;;;;4974776;28;20063;-58
2024/01/27 01:00:18;;;;;;;3.28;1.65;;;22.30;31.80;;;;;;4978896;28;20046;-58
2024/01/27 01:02:45;;;;;;;4.55;1.88;;;22.30;31.80;;;;;;4980014;28;20061;-58
2024/01/27 01:05:12;;;;;;;5.38;1.65;;;22.30;31.80;;;;;;4975014;28;20369;-58
2024/01/27 01:07:41;;;;;;;8.63;2.40;;;22.30;31.80;;;;;;4978116;28;20491;-60
2024/01/27 01:10:08;;;;;;;8.23;2.13;;;22.20;31.70;;;;;;4970040;28;20059;-57
2024/01/27 01:12:36;;;;;;;4.30;1.83;;;22.20;31.70;;;;;;4967578;28;20046;-57
2024/01/27 01:15:03;;;;;;;7.18;1.77;;;22.20;31.70;;;;;;4978597;28;20058;-58
2024/01/27 01:17:30;;;;;;;5.32;1.95;;;22.20;31.70;;;;;;4973437;28;20411;-58
2024/01/27 01:19:58;;;;;;;6.35;2.28;;;22.10;31.60;;;;;;4978939;28;20552;-58
2024/01/27 01:22:25;;;;;;;5.80;2.08;;;22.10;31.60;;;;;;4975756;28;20492;-57
2024/01/27 01:24:53;;;;;;;6.03;1.95;;;22.10;31.60;;;;;;4975411;28;20050;-57
2024/01/27 01:27:21;;;;;;;5.78;2.08;;;22.00;31.60;;;;;;4975041;28;20062;-58
2024/01/27 01:29:48;;;;;;;5.40;1.88;;;22.00;31.60;;;;;;4980429;28;20093;-59
2024/01/27 01:32:16;;;;;;;4.88;1.70;;;22.00;31.60;;;;;;4973347;28;20051;-60
2024/01/27 01:34:43;;;;;;;4.65;2.08;;;22.00;31.70;;;;;;4978054;28;20061;-60
2024/01/27 01:37:10;;;;;;;4.95;2.00;;;21.90;31.60;;;;;;4974391;28;20499;-60
2024/01/27 01:39:36;;;;;;;4.72;1.90;;;21.90;31.60;;;;;;4979757;28;20069;-57
2024/01/27 01:42:05;;;;;;;4.78;1.67;;;21.80;31.60;;;;;;4975018;28;20055;-60
2024/01/27 01:44:32;;;;;;;5.72;1.92;;;21.90;31.70;;;;;;4977169;28;20410;-60
2024/01/27 01:47:00;;;;;;;4.65;1.70;;;21.80;31.70;;;;;;4975478;28;20051;-61
2024/01/27 01:49:27;;;;;;;6.57;1.80;;;21.80;31.70;;;;;;4972777;28;20055;-61
2024/01/27 01:51:55;;;;;;;5.68;2.20;;;21.80;31.80;;;;;;4975453;28;20046;-61
2024/01/27 01:54:27;;;;;;;5.05;1.85;;;21.70;31.70;;;;;;4983942;28;20519;-59
2024/01/27 01:56:55;;;;;;;5.05;1.73;;;21.70;31.80;;;;;;4974480;28;20055;-61
2024/01/27 01:59:24;;;;;;;5.43;1.95;;;21.70;31.80;;;;;;4983253;28;20057;-61
2024/01/27 02:01:51;;;;;;;3.33;1.50;;;21.60;31.80;;;;;;4977031;28;20061;-61
2024/01/27 02:04:18;;;;;;;6.35;1.70;;;21.60;31.80;;;;;;4973628;28;20517;-59
2024/01/27 02:06:46;;;;;;;5.57;1.73;;;21.60;31.90;;;;;;4977166;28;20050;-60
2024/01/27 02:09:13;;;;;;;4.65;1.95;;;21.50;31.80;;;;;;4978746;28;20046;-60
2024/01/27 02:11:41;;;;;;;3.35;1.50;;;21.50;31.90;;;;;;4973849;28;20403;-61
2024/01/27 02:14:08;;;;;;;5.28;1.70;;;21.50;31.90;;;;;;4973136;28;20058;-60
2024/01/27 02:16:37;;;;;;;4.53;1.67;;;21.50;31.90;;;;;;4974092;28;20400;-60
2024/01/27 02:19:04;;;;;;;4.95;1.75;;;21.40;31.90;;;;;;4974458;28;20057;-61
2024/01/27 02:21:31;;;;;;;6.53;1.90;;;21.40;32.00;;;;;;4968919;28;20065;-59
2024/01/27 02:23:59;;;;;;;6.13;1.85;;;21.40;32.00;;;;;;4974606;28;20050;-61
2024/01/27 02:26:27;;;;;;;6.35;2.00;;;21.40;32.00;;;;;;4971816;28;20051;-60
2024/01/27 02:28:55;;;;;;;4.30;1.65;;;21.30;32.00;;;;;;4971140;28;20499;-61
2024/01/27 02:31:22;;;;;;;6.07;2.03;;;21.40;32.00;;;;;;4978759;28;20059;-60
2024/01/27 02:33:50;;;;;;;5.93;2.00;;;21.40;32.10;;;;;;4976414;28;20047;-57
2024/01/27 02:36:17;;;;;;;4.13;1.40;;;21.40;32.20;;;;;;4965504;28;20131;-60
2024/01/27 02:38:44;;;;;;;7.47;1.92;;;21.40;32.30;;;;;;4973837;28;20496;-60
2024/01/27 02:41:11;;;;;;;6.05;2.00;;;21.40;32.30;;;;;;4974424;28;20058;-61
2024/01/27 02:43:40;;;;;;;5.13;1.75;;;21.40;32.30;;;;;;4980465;28;20355;-59
2024/01/27 02:46:10;;;;;;;7.20;2.17;;;21.50;32.30;;;;;;4967639;28;20381;-59
2024/01/27 02:48:40;;;;;;;5.07;2.05;;;21.50;32.30;;;;;;4974253;28;20055;-57
2024/01/27 02:51:07;;;;;;;5.00;1.85;;;21.60;32.30;;;;;;4964473;28;20057;-62
2024/01/27 02:53:35;;;;;;;5.72;1.63;;;21.60;32.40;;;;;;4971790;28;20058;-60
2024/01/27 02:56:02;;;;;;;7.03;2.05;;;21.60;32.40;;;;;;4973456;28;20055;-60
2024/01/27 02:58:30;;;;;;;3.72;1.55;;;21.70;32.40;;;;;;4975586;28;20499;-61
2024/01/27 03:00:58;;;;;;;4.20;1.77;;;21.80;32.40;;;;;;4975351;28;20054;-61
2024/01/27 03:03:25;;;;;;;5.82;1.73;;;21.80;32.30;;;;;;4981929;28;20408;-60
2024/01/27 03:05:53;;;;;;;4.28;2.00;;;21.80;32.20;;;;;;4975727;28;20058;-61
2024/01/27 03:08:20;;;;;;;5.32;1.70;;;21.80;32.20;;;;;;4978483;28;20055;-61
2024/01/27 03:10:48;;;;;;;4.45;1.90;;;21.90;32.20;;;;;;4984819;28;20081;-60
2024/01/27 03:13:15;;;;;;;4.75;1.88;;;21.90;32.10;;;;;;4967018;28;20046;-61
2024/01/27 03:15:43;;;;;;;4.28;1.67;;;21.90;32.10;;;;;;4973509;28;20061;-60
2024/01/27 03:18:12;;;;;;;4.20;1.65;;;21.90;32.00;;;;;;4981709;28;20050;-60
2024/01/27 03:20:39;;;;;;;8.43;2.45;;;21.90;32.00;;;;;;4971795;28;20074;-61
2024/01/27 03:23:06;;;;;;;4.68;1.90;;;21.90;32.00;;;;;;4974903;28;20377;-60
2024/01/27 03:25:33;;;;;;;5.70;2.10;;;21.80;32.00;;;;;;4974120;28;20054;-61
2024/01/27 03:28:01;;;;;;;4.53;1.60;;;21.90;32.00;;;;;;4975547;28;20059;-61
2024/01/27 03:30:29;;;;;;;4.47;1.60;;;21.90;32.10;;;;;;4966113;28;20054;-61
2024/01/27 03:32:56;;;;;;;6.55;1.92;;;21.90;32.10;;;;;;4972252;28;20058;-61
2024/01/27 03:35:25;;;;;;;4.60;1.50;;;22.00;32.20;;;;;;4961072;28;20059;-60
2024/01/27 03:37:52;;;;;;;6.03;1.80;;;22.00;32.10;;;;;;4974824;28;20446;-61
2024/01/27 03:40:20;;;;;;;5.38;1.63;;;22.10;32.10;;;;;;4970523;28;20066;-60
2024/01/27 03:42:47;;;;;;;4.95;1.83;;;22.10;32.00;;;;;;4937523;28;20070;-60
2024/01/27 03:45:14;;;;;;;5.60;1.60;;;22.10;31.90;;;;;;4970984;28;20047;-61
2024/01/27 03:47:41;;;;;;;5.28;2.05;;;22.10;31.90;;;;;;4979705;28;20061;-61
2024/01/27 03:50:09;;;;;;;4.63;1.83;;;22.10;31.80;;;;;;4983213;28;20050;-60
2024/01/27 03:52:37;;;;;;;5.57;1.77;;;22.20;31.90;;;;;;4972837;28;20050;-61
2024/01/27 03:55:06;;;;;;;5.97;1.95;;;22.20;31.80;;;;;;4978183;28;20483;-59
2024/01/27 03:57:33;;;;;;;5.43;1.90;;;22.20;31.80;;;;;;4976180;28;20085;-58
2024/01/27 04:00:00;;;;;;;7.25;2.08;;;22.20;31.70;;;;;;4969730;28;20075;-57
2024/01/27 04:02:27;;;;;;;5.90;1.70;;;22.10;31.70;;;;;;4980998;28;20058;-58
2024/01/27 04:04:55;;;;;;;6.63;1.80;;;22.10;31.60;;;;;;4983447;28;20403;-58
2024/01/27 04:07:22;;;;;;;4.13;1.58;;;22.10;31.60;;;;;;4980381;28;20664;-56
2024/01/27 04:09:50;;;;;;;5.40;1.85;;;22.20;31.60;;;;;;4979110;28;20051;-56
2024/01/27 04:12:17;;;;;;;5.03;1.73;;;22.10;31.50;;;;;;4975278;28;20058;-59
2024/01/27 04:14:45;;;;;;;5.75;2.13;;;22.10;31.50;;;;;;4975381;28;20062;-59
2024/01/27 04:17:12;;;;;;;5.43;1.98;;;22.10;31.50;;;;;;4979033;28;20066;-58
2024/01/27 04:19:39;;;;;;;5.85;2.10;;;22.10;31.40;;;;;;4976516;28;20071;-58
2024/01/27 04:22:07;;;;;;;5.75;1.65;;;22.00;31.40;;;;;;4978129;28;20061;-59
2024/01/27 04:24:34;;;;;;;5.70;1.90;;;22.00;31.40;;;;;;4980378;28;20073;-58
2024/01/27 04:27:03;;;;;;;5.03;1.50;;;22.00;31.40;;;;;;4982250;28;20074;-58
2024/01/27 04:29:30;;;;;;;6.70;2.05;;;22.00;31.30;;;;;;4978643;28;20063;-59
2024/01/27 04:31:57;;;;;;;5.45;2.22;;;22.00;31.30;;;;;;4978959;28;20066;-59
2024/01/27 04:34:24;;;;;;;8.63;1.90;;;21.90;31.20;;;;;;4976214;28;20054;-58
2024/01/27 04:36:52;;;;;;;5.03;1.80;;;21.90;31.20;;;;;;4979972;28;20050;-58
2024/01/27 04:39:19;;;;;;;5.88;2.17;;;21.80;31.20;;;;;;4973520;28;20384;-56
2024/01/27 04:41:46;;;;;;;5.47;1.90;;;21.90;31.20;;;;;;4974900;28;20058;-58
2024/01/27 04:44:15;;;;;;;4.32;1.45;;;21.80;31.20;;;;;;4982932;28;20412;-58
2024/01/27 04:46:42;;;;;;;4.13;1.58;;;21.80;31.30;;;;;;4981863;28;20054;-60
2024/01/27 04:49:09;;;;;;;4.47;1.65;;;21.80;31.30;;;;;;4983062;28;20058;-58
2024/01/27 04:51:37;;;;;;;5.85;1.67;;;21.80;31.40;;;;;;4970892;28;20058;-59
2024/01/27 04:54:04;;;;;;;5.03;1.40;;;21.80;31.50;;;;;;4973064;28;20054;-59
2024/01/27 04:56:31;;;;;;;5.57;1.85;;;21.80;31.50;;;;;;4986007;28;20074;-59
2024/01/27 04:58:58;;;;;;;5.15;2.00;;;21.80;31.50;;;;;;4973711;28;20057;-58
2024/01/27 05:01:27;;;;;;;4.72;1.52;;;21.80;31.60;;;;;;4972808;28;20411;-60
2024/01/27 05:03:54;;;;;;;3.33;1.38;;;21.80;31.50;;;;;;4979737;28;20062;-59
2024/01/27 05:06:21;;;;;;;4.00;1.65;;;21.90;31.50;;;;;;4985197;28;20058;-56
2024/01/27 05:08:49;;;;;;;4.45;1.50;;;21.90;31.60;;;;;;4981449;28;20047;-58
2024/01/27 05:11:17;;;;;;;6.10;2.05;;;21.90;31.60;;;;;;4988772;28;20071;-58
2024/01/27 05:13:44;;;;;;;5.00;1.77;;;21.90;31.50;;;;;;4970396;28;20114;-59
2024/01/27 05:16:11;;;;;;;5.50;1.88;;;21.90;31.50;;;;;;4974996;28;20055;-59
2024/01/27 05:18:40;;;;;;;9.30;2.17;;;21.90;31.50;;;;;;4970754;28;20522;-57
2024/01/27 05:21:07;;;;;;;5.50;1.67;;;21.90;31.50;;;;;;4965514;28;20062;-57
2024/01/27 05:23:34;;;;;;;5.00;1.70;;;21.90;31.40;;;;;;4971286;28;20471;-56
2024/01/27 05:26:02;;;;;;;5.55;2.08;;;21.90;31.40;;;;;;4971230;28;20062;-57
2024/01/27 05:28:29;;;;;;;4.78;1.67;;;21.80;31.30;;;;;;4969349;28;20062;-57
2024/01/27 05:30:57;;;;;;;6.07;1.63;;;21.80;31.30;;;;;;4970717;28;20054;-59
2024/01/27 05:33:24;;;;;;;5.70;1.75;;;21.80;31.30;;;;;;4979549;28;20450;-58
2024/01/27 05:35:53;;;;;;;5.18;2.10;;;21.80;31.20;;;;;;4976794;28;20059;-58
2024/01/27 05:38:20;;;;;;;5.75;1.90;;;21.80;31.30;;;;;;4982293;28;20100;-57
2024/01/27 05:40:49;;;;;;;4.18;1.35;;;21.80;31.30;;;;;;4976195;28;20066;-58
2024/01/27 05:43:16;;;;;;;5.05;1.75;;;21.70;31.30;;;;;;4974440;28;20081;-58
2024/01/27 05:45:44;;;;;;;13.07;1.90;;;21.70;31.40;;;;;;4977376;28;20046;-58
2024/01/27 05:48:12;;;;;;;12.05;2.22;;;21.70;31.50;;;;;;4974938;28;20046;-56
2024/01/27 05:50:43;;;;;;;8.38;1.70;;;21.70;31.40;;;;;;4971019;28;20054;-59
2024/01/27 05:53:11;;;;;;;10.80;2.17;;;21.70;31.20;;;;;;4971952;28;20051;-59
2024/01/27 05:55:39;;;;;;;7.18;2.22;;;21.70;31.10;;;;;;4973965;28;20051;-58
2024/01/27 05:58:06;;;;;;;9.65;2.00;;;21.70;31.20;;;;;;4970579;28;20073;-57
2024/01/27 06:00:33;;;;;;;9.13;4.13;;;21.70;31.20;;;;;;4974028;28;20054;-58
2024/01/27 06:03:00;;;;;;;19.15;9.55;;;21.70;31.20;;;;;;4966551;28;20400;-57
2024/01/27 06:05:28;;;;;;;25.88;8.32;;;21.70;31.30;;;;;;4977414;28;20070;-60
2024/01/27 06:07:55;;;;;;;19.50;6.10;;;21.70;31.30;;;;;;4972416;28;20058;-58
2024/01/27 06:10:24;;;;;;;17.30;6.22;;;21.80;31.50;;;;;;4974582;28;20055;-57
2024/01/27 06:12:51;;;;;;;22.48;5.50;;;21.70;31.60;;;;;;4973580;28;20062;-58
2024/01/27 06:15:19;;;;;;;16.15;4.25;;;21.70;31.60;;;;;;4965033;28;20055;-58
2024/01/27 06:17:46;;;;;;;13.82;4.43;;;21.80;31.70;;;;;;4960219;28;20061;-58
2024/01/27 06:20:16;;;;;;;11.98;4.07;;;21.70;31.60;;;;;;4958172;28;20938;-57
2024/01/27 06:22:43;;;;;;;8.07;3.60;;;21.70;31.50;;;;;;4968747;28;20052;-59
2024/01/27 06:25:11;;;;;;;8.02;3.72;;;21.70;31.40;;;;;;4975001;28;20759;-57
2024/01/27 06:27:41;;;;;;;10.52;3.47;;;21.80;31.40;;;;;;4969823;28;20058;-58
2024/01/27 06:30:10;;;;;;;8.32;3.40;;;21.70;31.30;;;;;;4970012;28;20410;-59
2024/01/27 06:32:38;;;;;;;9.70;3.30;;;21.70;31.40;;;;;;4969352;28;20526;-59
2024/01/27 06:35:06;;;;;;;19.10;7.80;;;21.70;31.30;;;;;;4972759;28;20065;-58
2024/01/27 06:37:33;;;;;;;123.60;64.35;;;21.70;31.30;;;;;;4972585;28;20515;-58
2024/01/27 06:40:00;;;;;;;123.72;61.50;;;21.70;31.10;;;;;;4975828;28;20061;-59
2024/01/27 06:42:27;;;;;;;68.25;35.97;;;21.70;31.00;;;;;;4976730;28;20074;-58
2024/01/27 06:44:56;;;;;;;41.65;23.52;;;21.60;31.00;;;;;;4973138;28;20055;-58
2024/01/27 06:47:23;;;;;;;34.13;17.25;;;21.60;31.00;;;;;;4976473;28;20051;-58
2024/01/27 06:49:50;;;;;;;31.25;14.95;;;21.60;31.20;;;;;;4978493;28;20054;-58
2024/01/27 06:52:17;;;;;;;23.45;12.68;;;21.50;31.10;;;;;;4972249;28;20058;-58
2024/01/27 06:54:44;;;;;;;24.92;12.75;;;21.50;31.10;;;;;;4973489;28;20093;-58
2024/01/27 06:57:20;;;;;;;22.75;11.27;;;21.50;31.10;;;;;;4971074;28;20054;-58
2024/01/27 06:59:51;;;;;;;19.35;11.10;;;21.50;31.10;;;;;;4970561;28;20058;-57
2024/01/27 07:02:23;;;;;;;18.85;9.70;;;21.50;31.20;;;;;;4973820;28;20480;-58
2024/01/27 07:05:00;;;;;;;17.58;9.05;;;21.50;31.30;;;;;;5085121;28;20646;-57
2024/01/27 07:07:29;;;;;;;16.50;8.85;;;21.50;31.40;;;;;;5063394;28;20416;-57
2024/01/27 07:09:57;;;;;;;13.57;7.57;;;21.50;31.50;;;;;;5058520;28;20060;-57
2024/01/27 07:12:24;;;;;;;11.57;7.00;;;21.50;31.50;;;;;;5061255;28;20421;-57
2024/01/27 07:14:52;;;;;;;12.25;6.15;;;21.60;31.50;;;;;;5064014;28;20056;-57
2024/01/27 07:17:19;;;;;;;18.42;6.63;;;21.60;31.60;;;;;;5059122;28;20480;-58
2024/01/27 07:19:46;;;;;;;15.35;6.78;;;21.60;31.60;;;;;;5058527;28;20064;-57
2024/01/27 07:22:15;;;;;;;21.67;6.20;;;21.60;31.60;;;;;;5053985;28;20063;-56
2024/01/27 07:24:42;;;;;;;14.95;6.10;;;21.60;31.50;;;;;;5023950;28;20049;-57
2024/01/27 07:27:13;;;;;;;12.23;5.07;;;21.60;31.40;;;;;;5025421;28;20054;-56
2024/01/27 07:29:41;;;;;;;14.23;5.10;;;21.60;31.30;;;;;;5027998;28;20473;-57
2024/01/27 07:32:13;;;;;;;14.93;4.75;;;21.60;31.30;;;;;;5027825;28;20084;-56
2024/01/27 07:34:41;;;;;;;8.13;4.07;;;21.60;31.40;;;;;;5022962;28;20052;-56
2024/01/27 07:37:08;;;;;;;9.73;4.15;;;21.60;31.30;;;;;;5025880;28;20769;-57
2024/01/27 07:39:38;;;;;;;8.20;4.38;;;21.60;31.30;;;;;;5025445;28;20052;-56
2024/01/27 07:42:05;;;;;;;8.57;3.55;;;21.60;31.30;;;;;;5023590;28;20057;-55
2024/01/27 07:44:33;;;;;;;10.38;3.67;;;21.60;31.30;;;;;;5027828;28;20135;-56
2024/01/27 07:47:00;;;;;;;13.43;4.10;;;21.60;31.20;;;;;;5022646;28;20057;-56
2024/01/27 07:49:28;;;;;;;10.23;3.65;;;21.60;31.30;;;;;;5023371;28;20060;-54
2024/01/27 07:51:56;;;;;;;8.98;3.83;;;21.60;31.30;;;;;;5028055;28;20383;-56
2024/01/27 07:54:23;;;;;;;17.08;4.22;;;21.50;31.30;;;;;;5023812;28;20052;-56
2024/01/27 07:56:52;;;;;;;12.43;3.08;;;21.60;31.50;;;;;;5027873;28;20050;-55
2024/01/27 07:59:19;;;;;;;9.63;3.42;;;21.60;31.50;;;;;;5025641;28;20053;-56
2024/01/27 08:01:46;;;;;;;21.92;3.70;;;21.60;31.60;;;;;;5019611;28;20057;-55
2024/01/27 08:04:15;;;;;;;7.30;3.20;;;21.60;31.50;;;;;;5018913;28;20049;-56
2024/01/27 08:06:49;;;;;;;9.95;3.08;;;21.70;31.60;;;;;;5023328;28;20061;-56
2024/01/27 08:09:17;;;;;;;7.47;2.90;;;21.70;31.50;;;;;;5022955;28;21928;-55
2024/01/27 08:11:45;;;;;;;7.28;2.88;;;21.70;31.50;;;;;;5023677;28;21275;-55
2024/01/27 08:14:13;;;;;;;7.43;2.90;;;21.70;31.60;;;;;;5018426;28;20054;-55
2024/01/27 08:16:40;;;;;;;15.00;3.33;;;21.70;31.60;;;;;;5001367;28;20046;-55
2024/01/27 08:19:07;;;;;;;6.28;2.42;;;21.70;31.60;;;;;;5012527;28;20061;-57
2024/01/27 08:21:35;;;;;;;11.63;2.70;;;21.80;31.60;;;;;;5014454;28;20417;-54
2024/01/27 08:24:02;;;;;;;13.27;3.00;;;21.80;31.70;;;;;;5007260;28;20513;-52
2024/01/27 08:26:28;;;;;;;7.93;2.40;;;21.90;31.70;;;;;;5008305;28;20446;-53
2024/01/27 08:28:56;;;;;;;13.85;3.50;;;21.90;31.70;;;;;;5009267;28;20053;-50
2024/01/27 08:31:24;;;;;;;7.63;2.75;;;21.90;31.10;;;;;;5006889;28;20050;-51
2024/01/27 08:33:52;;;;;;;11.13;3.45;;;22.00;30.50;;;;;;5010309;28;20045;-56
2024/01/27 08:36:19;;;;;;;20.30;3.03;;;22.00;30.40;;;;;;5010612;28;20065;-55
2024/01/27 08:38:46;;;;;;;11.45;2.78;;;22.00;30.70;;;;;;5016182;28;20053;-56
2024/01/27 08:41:13;;;;;;;14.13;3.03;;;21.90;30.30;;;;;;5012618;28;20133;-57
2024/01/27 08:43:40;;;;;;;18.38;3.40;;;21.90;30.30;;;;;;5011340;28;20502;-53
2024/01/27 08:46:13;;;;;;;20.30;3.13;;;21.90;30.50;;;;;;5012222;28;20050;-55
2024/01/27 08:48:42;;;;;;;20.60;3.30;;;21.90;30.70;;;;;;5011199;28;20405;-57
2024/01/27 08:51:09;;;;;;;16.38;3.35;;;21.90;30.80;;;;;;5009777;28;20414;-56
2024/01/27 08:53:37;;;;;;;19.08;3.28;;;21.90;30.70;;;;;;5010237;28;20052;-56
2024/01/27 08:56:05;;;;;;;7.78;2.63;;;21.90;30.70;;;;;;5008378;28;20506;-58
2024/01/27 08:58:32;;;;;;;9.10;2.90;;;21.80;30.60;;;;;;5011068;28;20597;-55
2024/01/27 09:01:05;;;;;;;10.82;3.00;;;21.80;30.60;;;;;;5010766;28;20065;-56
2024/01/27 09:03:32;;;;;;;10.50;2.70;;;21.80;30.60;;;;;;5011994;28;20065;-54
2024/01/27 09:06:00;;;;;;;13.88;2.63;;;21.80;30.60;;;;;;5007205;28;20112;-55
2024/01/27 09:08:28;;;;;;;10.63;3.42;;;21.80;30.50;;;;;;5007879;28;20057;-57
2024/01/27 09:10:55;;;;;;;11.80;3.20;;;21.80;30.40;;;;;;5001741;28;20050;-57
2024/01/27 09:13:22;;;;;;;9.93;2.97;;;21.70;30.00;;;;;;5004074;28;20053;-55
2024/01/27 09:15:49;;;;;;;75.93;34.65;;;21.70;30.00;;;;;;5011160;28;20053;-56
2024/01/27 09:18:17;;;;;;;74.40;35.85;;;21.70;30.10;;;;;;5005527;28;20686;-57
2024/01/27 09:20:44;;;;;;;41.67;21.98;;;21.60;30.10;;;;;;5013036;28;20049;-57
2024/01/27 09:23:13;;;;;;;28.45;14.18;;;21.60;30.20;;;;;;5008841;28;20049;-56
2024/01/27 09:25:42;;;;;;;22.63;10.40;;;21.60;30.20;;;;;;5008398;28;20042;-56
2024/01/27 09:28:10;;;;;;;21.45;8.32;;;21.60;30.40;;;;;;5005885;28;20056;-57
2024/01/27 09:30:38;;;;;;;14.65;6.97;;;21.60;30.40;;;;;;5008450;28;20057;-56
2024/01/27 09:33:05;;;;;;;13.40;5.93;;;21.50;30.20;;;;;;5010197;28;20045;-57
2024/01/27 09:35:33;;;;;;;16.60;6.13;;;21.50;30.10;;;;;;5006862;28;20418;-57
2024/01/27 09:38:00;;;;;;;14.00;5.07;;;21.50;30.00;;;;;;4999588;28;20424;-56
2024/01/27 09:40:28;;;;;;;14.05;5.75;;;21.50;30.00;;;;;;5003473;28;20045;-57
2024/01/27 09:43:00;;;;;;;18.85;5.10;;;21.50;29.90;;;;;;5010956;28;20062;-56
2024/01/27 09:45:27;;;;;;;12.57;5.18;;;21.50;29.90;;;;;;5006188;28;20062;-56
2024/01/27 09:47:58;;;;;;;11.30;4.25;;;21.50;30.00;;;;;;5008538;28;20053;-57
2024/01/27 09:50:39;;;;;;;17.05;4.63;;;21.60;30.30;;;;;;5005359;28;20401;-56
2024/01/27 09:53:15;;;;;;;15.70;3.65;;;21.60;30.40;;;;;;5007930;28;20057;-57
2024/01/27 09:55:45;;;;;;;12.80;3.78;;;21.60;30.60;;;;;;5002042;28;20050;-57
2024/01/27 09:58:15;;;;;;;15.90;3.35;;;21.60;30.40;;;;;;5002375;28;20325;-53
2024/01/27 10:00:43;;;;;;;20.75;4.15;;;21.70;30.40;;;;;;5008295;28;20049;-50
2024/01/27 10:03:10;;;;;;;10.73;3.47;;;21.70;30.30;;;;;;5010023;28;20065;-52
2024/01/27 10:05:39;;;;;;;15.45;3.17;;;21.70;30.30;;;;;;5008499;28;20049;-53
2024/01/27 10:08:07;;;;;;;11.25;3.00;;;21.70;30.30;;;;;;5006264;28;20065;-52
2024/01/27 10:10:34;;;;;;;17.40;3.90;;;21.70;30.20;;;;;;5004001;28;20054;-51
2024/01/27 10:13:06;;;;;;;20.50;3.40;;;21.70;30.10;;;;;;5004019;28;20054;-52
2024/01/27 10:15:33;;;;;;;12.63;3.80;;;21.80;30.00;;;;;;5009111;28;20598;-53
2024/01/27 10:18:07;;;;;;;9.35;3.05;;;21.80;29.90;;;;;;5010458;28;20054;-53
2024/01/27 10:20:34;;;;;;;;;;;21.80;29.70;;;;;;5006523;28;20092;-55
2024/01/27 10:23:12;;;;;;;18.30;4.03;;;21.90;29.90;;;;;;5006509;28;20378;-53
2024/01/27 10:25:39;;;;;;;13.82;3.45;;;21.90;29.50;;;;;;5005250;28;21228;-51
2024/01/27 10:28:08;;;;;;;10.73;3.38;;;21.90;29.70;;;;;;5008608;28;20061;-52
2024/01/27 10:30:35;;;;;;;9.65;2.78;;;21.80;29.80;;;;;;5008125;28;20480;-55
2024/01/27 10:33:03;;;;;;;13.60;3.47;;;21.80;29.90;;;;;;5003015;28;20415;-54
2024/01/27 10:35:30;;;;;;;10.95;3.40;;;21.80;30.00;;;;;;5006525;28;20042;-56
2024/01/27 10:37:57;;;;;;;8.98;2.72;;;21.80;30.10;;;;;;5016109;28;20053;-54
2024/01/27 10:40:25;;;;;;;14.35;2.70;;;21.90;30.20;;;;;;5014963;28;20057;-57
2024/01/27 10:43:01;;;;;;;11.70;2.72;;;21.90;30.30;;;;;;5011272;28;20058;-56
2024/01/27 10:45:34;;;;;;;10.75;3.08;;;21.90;30.30;;;;;;5005354;28;20050;-57
2024/01/27 10:48:03;;;;;;;7.18;2.83;;;22.00;30.50;;;;;;5008682;28;20049;-57
2024/01/27 10:50:31;;;;;;;5.32;2.22;;;22.00;30.50;;;;;;5007989;28;20054;-57
2024/01/27 10:53:00;;;;;;;6.88;2.25;;;22.10;30.50;;;;;;5010020;28;20061;-56
2024/01/27 10:55:28;;;;;;;8.27;2.58;;;22.10;30.50;;;;;;5014845;28;20057;-53
2024/01/27 10:57:57;;;;;;;8.63;2.78;;;22.10;30.50;;;;;;5013195;28;20421;-58
2024/01/27 11:00:25;;;;;;;8.25;2.65;;;22.20;30.50;;;;;;5011378;28;20494;-58
2024/01/27 11:02:57;;;;;;;7.90;2.47;;;22.20;30.50;;;;;;5016481;28;20053;-58
2024/01/27 11:05:25;;;;;;;9.02;3.03;;;22.20;30.50;;;;;;5006218;28;20141;-57
2024/01/27 11:07:52;;;;;;;7.38;1.95;;;22.20;30.40;;;;;;5005132;28;20061;-56
2024/01/27 11:10:20;;;;;;;6.65;2.53;;;22.30;30.50;;;;;;5010414;28;20056;-56
2024/01/27 11:12:49;;;;;;;7.75;2.40;;;22.30;30.50;;;;;;5010367;28;20097;-57
2024/01/27 11:15:16;;;;;;;6.90;2.50;;;22.30;30.50;;;;;;5011756;28;20060;-57
2024/01/27 11:17:45;;;;;;;5.47;2.00;;;22.30;30.50;;;;;;4998161;28;20057;-56
2024/01/27 11:20:16;;;;;;;6.60;1.85;;;22.20;30.50;;;;;;5008898;28;20058;-57
2024/01/27 11:22:44;;;;;;;7.88;2.78;;;22.20;30.50;;;;;;5003156;28;20050;-57
2024/01/27 11:25:17;;;;;;;5.05;2.13;;;22.20;30.50;;;;;;5006820;28;20073;-57
2024/01/27 11:27:45;;;;;;;6.80;2.45;;;22.20;30.50;;;;;;4996899;28;20054;-57
2024/01/27 11:30:28;;;;;;;5.97;2.13;;;22.20;30.50;;;;;;5000791;28;20060;-54
2024/01/27 11:32:57;;;;;;;6.05;2.25;;;22.10;30.50;;;;;;4999273;28;20433;-55
2024/01/27 11:35:25;;;;;;;5.95;2.05;;;22.10;30.50;;;;;;5003522;28;20053;-58
2024/01/27 11:37:53;;;;;;;5.72;2.22;;;22.10;30.50;;;;;;5000963;28;20521;-57
2024/01/27 11:40:21;;;;;;;12.02;2.72;;;22.10;30.50;;;;;;5001213;28;20060;-58
2024/01/27 11:42:55;;;;;;;14.25;3.00;;;22.00;29.90;;;;;;5003592;28;20061;-58
2024/01/27 11:45:22;;;;;;;11.27;2.90;;;22.00;29.50;;;;;;5010879;28;20057;-60
2024/01/27 11:47:50;;;;;;;9.88;3.20;;;21.90;29.60;;;;;;5011073;28;20058;-59
2024/01/27 11:50:18;;;;;;;9.93;2.88;;;21.80;29.50;;;;;;5009843;28;20057;-59
2024/01/27 11:52:48;;;;;;;10.00;2.97;;;21.70;30.10;;;;;;5002727;28;20057;-58
2024/01/27 11:55:15;;;;;;;10.80;2.78;;;21.60;31.30;;;;;;4999501;28;20495;-58
2024/01/27 11:57:43;;;;;;;12.35;3.35;;;21.50;32.20;;;;;;5004566;28;20058;-59
2024/01/27 12:00:10;;;;;;;11.25;2.40;;;21.40;32.90;;;;;;5007195;28;20049;-58
2024/01/27 12:02:38;;;;;;;8.95;2.08;;;21.40;33.40;;;;;;5006570;28;20049;-58
2024/01/27 12:05:05;;;;;;;9.80;2.40;;;21.40;33.80;;;;;;5001553;28;20058;-59
2024/01/27 12:07:32;;;;;;;5.10;1.80;;;21.30;34.00;;;;;;5001286;28;20053;-57
2024/01/27 12:10:01;;;;;;;6.95;2.25;;;21.30;34.10;;;;;;5004735;28;20050;-57
2024/01/27 12:12:28;;;;;;;5.78;2.13;;;21.30;34.20;;;;;;5001683;28;20061;-57
2024/01/27 12:14:55;;;;;;;10.73;1.95;;;21.30;34.20;;;;;;5008897;28;20057;-56
2024/01/27 12:17:23;;;;;;;7.57;2.30;;;21.40;34.40;;;;;;5001617;28;20050;-57
2024/01/27 12:19:53;;;;;;;7.50;2.17;;;21.40;34.50;;;;;;5007705;28;20057;-54
2024/01/27 12:22:25;;;;;;;7.75;2.22;;;21.40;34.40;;;;;;4999118;28;20054;-57
2024/01/27 12:24:53;;;;;;;6.40;1.92;;;21.40;34.40;;;;;;5002759;28;20624;-55
2024/01/27 12:27:23;;;;;;;7.20;1.95;;;21.40;34.40;;;;;;5003257;28;20080;-57
2024/01/27 12:29:50;;;;;;;6.25;2.20;;;21.50;34.60;;;;;;5005188;28;20429;-56
2024/01/27 12:32:18;;;;;;;7.60;2.45;;;21.50;34.70;;;;;;5001341;28;20057;-56
2024/01/27 12:34:47;;;;;;;5.72;1.77;;;21.50;34.70;;;;;;5001292;28;20069;-56
2024/01/27 12:37:14;;;;;;;6.45;2.20;;;21.50;34.70;;;;;;4999376;28;20070;-57
2024/01/27 12:39:45;;;;;;;6.90;1.95;;;21.50;34.70;;;;;;5009852;28;20077;-56
2024/01/27 12:42:12;;;;;;;5.32;2.05;;;21.60;34.90;;;;;;5009194;28;20058;-55
2024/01/27 12:44:41;;;;;;;3.47;1.60;;;21.60;34.90;;;;;;5006543;28;20053;-55
2024/01/27 12:47:08;;;;;;;7.32;2.00;;;21.60;34.90;;;;;;5003418;28;20054;-51